sensor_id;sensor_type;location;lat;lon;timestamp;temperature;humidity
36548;DHT22;22551;52.206;4.856;2023-07-08T00:35:37;20.10;99.90
36548;DHT22;22551;52.206;4.856;2023-07-08T00:40:50;20.20;99.90
36548;DHT22;22551;52.206;4.856;2023-07-08T00:46:00;20.20;99.90
36548;DHT22;22551;52.206;4.856;2023-07-08T00:51:14;20.20;99.90
36548;DHT22;22551;52.206;4.856;2023-07-08T00:56:28;20.10;99.90
36548;DHT22;22551;52.206;4.856;2023-07-08T02:03:38;19.20;99.90
36548;DHT22;22551;52.206;4.856;2023-07-08T02:08:40;19.10;99.90
36548;DHT22;22551;52.206;4.856;2023-07-08T02:13:42;19.10;99.90
36548;DHT22;22551;52.206;4.856;2023-07-08T02:18:46;19.00;99.90
36548;DHT22;22551;52.206;4.856;2023-07-08T02:23:49;19.00;99.90
36548;DHT22;22551;52.206;4.856;2023-07-08T02:28:52;18.90;99.90
36548;DHT22;22551;52.206;4.856;2023-07-08T02:33:55;18.80;99.90
36548;DHT22;22551;52.206;4.856;2023-07-08T04:51:53;18.10;99.90
36548;DHT22;22551;52.206;4.856;2023-07-08T05:02:06;18.20;99.90
36548;DHT22;22551;52.206;4.856;2023-07-08T05:33:01;18.80;99.90
36548;DHT22;22551;52.206;4.856;2023-07-08T05:38:03;18.90;99.90
36548;DHT22;22551;52.206;4.856;2023-07-08T05:43:06;19.20;99.90
36548;DHT22;22551;52.206;4.856;2023-07-08T05:48:10;19.80;99.90
36548;DHT22;22551;52.206;4.856;2023-07-08T05:53:13;20.50;99.90
36548;DHT22;22551;52.206;4.856;2023-07-08T05:58:16;20.90;99.90
36548;DHT22;22551;52.206;4.856;2023-07-08T06:13:41;21.80;99.90
36548;DHT22;22551;52.206;4.856;2023-07-08T06:18:43;22.00;99.90
36548;DHT22;22551;52.206;4.856;2023-07-08T06:23:46;22.10;99.90
36548;DHT22;22551;52.206;4.856;2023-07-08T06:28:49;22.10;99.90
36548;DHT22;22551;52.206;4.856;2023-07-08T06:33:52;22.20;99.90
36548;DHT22;22551;52.206;4.856;2023-07-08T06:38:54;22.40;99.90
36548;DHT22;22551;52.206;4.856;2023-07-08T07:09:49;23.80;99.90
36548;DHT22;22551;52.206;4.856;2023-07-08T07:35:34;25.40;99.90
36548;DHT22;22551;52.206;4.856;2023-07-08T07:56:09;26.30;99.90
36548;DHT22;22551;52.206;4.856;2023-07-08T08:01:11;26.70;99.90
36548;DHT22;22551;52.206;4.856;2023-07-08T08:06:15;27.50;99.90
36548;DHT22;22551;52.206;4.856;2023-07-08T08:11:20;27.80;99.90
36548;DHT22;22551;52.206;4.856;2023-07-08T08:31:54;28.60;99.90
36548;DHT22;22551;52.206;4.856;2023-07-08T08:36:56;28.30;99.90
36548;DHT22;22551;52.206;4.856;2023-07-08T08:41:59;29.10;99.60
36548;DHT22;22551;52.206;4.856;2023-07-08T08:47:10;29.40;98.70
36548;DHT22;22551;52.206;4.856;2023-07-08T08:52:17;29.70;97.90
36548;DHT22;22551;52.206;4.856;2023-07-08T08:57:31;30.00;97.40
36548;DHT22;22551;52.206;4.856;2023-07-08T09:44:57;32.50;95.70
36548;DHT22;22551;52.206;4.856;2023-07-08T09:50:01;33.50;95.30
36548;DHT22;22551;52.206;4.856;2023-07-08T09:55:11;32.70;95.40
36548;DHT22;22551;52.206;4.856;2023-07-08T10:00:17;33.20;95.30
36548;DHT22;22551;52.206;4.856;2023-07-08T11:18:42;33.30;92.20
36548;DHT22;22551;52.206;4.856;2023-07-08T11:23:52;33.80;91.50
36548;DHT22;22551;52.206;4.856;2023-07-08T11:34:11;34.10;92.10
36548;DHT22;22551;52.206;4.856;2023-07-08T11:44:33;34.70;92.40
36548;DHT22;22551;52.206;4.856;2023-07-08T11:49:37;34.40;90.60
36548;DHT22;22551;52.206;4.856;2023-07-08T11:54:44;34.90;91.40
36548;DHT22;22551;52.206;4.856;2023-07-08T12:20:32;35.10;91.30
36548;DHT22;22551;52.206;4.856;2023-07-08T12:31:17;35.90;90.50
36548;DHT22;22551;52.206;4.856;2023-07-08T12:36:24;35.70;88.90
36548;DHT22;22551;52.206;4.856;2023-07-08T13:07:33;35.90;83.40
36548;DHT22;22551;52.206;4.856;2023-07-08T13:12:39;35.80;78.30
36548;DHT22;22551;52.206;4.856;2023-07-08T13:17:42;35.80;82.90
36548;DHT22;22551;52.206;4.856;2023-07-08T13:22:50;35.70;84.80
36548;DHT22;22551;52.206;4.856;2023-07-08T13:28:00;36.10;84.30
36548;DHT22;22551;52.206;4.856;2023-07-08T13:33:04;36.00;84.70
36548;DHT22;22551;52.206;4.856;2023-07-08T13:38:19;36.80;86.50
36548;DHT22;22551;52.206;4.856;2023-07-08T13:43:24;36.80;83.80
36548;DHT22;22551;52.206;4.856;2023-07-08T13:48:30;36.40;82.30
36548;DHT22;22551;52.206;4.856;2023-07-08T13:53:45;36.30;81.80
36548;DHT22;22551;52.206;4.856;2023-07-08T13:58:50;36.50;81.10
36548;DHT22;22551;52.206;4.856;2023-07-08T14:26:35;36.30;82.10
36548;DHT22;22551;52.206;4.856;2023-07-08T14:31:38;36.60;83.70
36548;DHT22;22551;52.206;4.856;2023-07-08T14:41:52;36.00;81.00
36548;DHT22;22551;52.206;4.856;2023-07-08T14:46:57;35.40;80.10
36548;DHT22;22551;52.206;4.856;2023-07-08T15:02:28;36.40;81.20
36548;DHT22;22551;52.206;4.856;2023-07-08T15:12:43;36.20;80.10
36548;DHT22;22551;52.206;4.856;2023-07-08T15:33:20;35.70;77.90
36548;DHT22;22551;52.206;4.856;2023-07-08T15:38:34;35.40;75.80
36548;DHT22;22551;52.206;4.856;2023-07-08T15:44:49;35.40;77.90
36548;DHT22;22551;52.206;4.856;2023-07-08T15:50:26;35.10;78.40
36548;DHT22;22551;52.206;4.856;2023-07-08T15:55:31;34.60;80.10
36548;DHT22;22551;52.206;4.856;2023-07-08T16:00:36;34.30;80.70
36548;DHT22;22551;52.206;4.856;2023-07-08T16:05:41;34.00;81.90
36548;DHT22;22551;52.206;4.856;2023-07-08T16:10:45;33.90;83.40
36548;DHT22;22551;52.206;4.856;2023-07-08T16:15:52;33.70;84.30
36548;DHT22;22551;52.206;4.856;2023-07-08T16:20:56;33.80;85.50
36548;DHT22;22551;52.206;4.856;2023-07-08T16:42:25;33.40;85.80
36548;DHT22;22551;52.206;4.856;2023-07-08T16:47:28;33.40;85.90
36548;DHT22;22551;52.206;4.856;2023-07-08T16:52:31;33.40;88.10
36548;DHT22;22551;52.206;4.856;2023-07-08T16:57:35;33.00;88.10
36548;DHT22;22551;52.206;4.856;2023-07-08T17:02:38;33.10;89.00
36548;DHT22;22551;52.206;4.856;2023-07-08T17:07:40;33.00;89.40
36548;DHT22;22551;52.206;4.856;2023-07-08T17:12:44;32.90;90.10
36548;DHT22;22551;52.206;4.856;2023-07-08T17:17:50;32.70;89.40
36548;DHT22;22551;52.206;4.856;2023-07-08T17:22:54;32.20;91.10
36548;DHT22;22551;52.206;4.856;2023-07-08T17:27:57;32.20;90.40
36548;DHT22;22551;52.206;4.856;2023-07-08T17:33:01;32.10;90.80
36548;DHT22;22551;52.206;4.856;2023-07-08T17:38:09;32.20;90.50
36548;DHT22;22551;52.206;4.856;2023-07-08T18:22:44;31.10;93.40
36548;DHT22;22551;52.206;4.856;2023-07-08T19:56:13;28.00;99.60
36548;DHT22;22551;52.206;4.856;2023-07-08T20:01:16;27.70;99.50
36548;DHT22;22551;52.206;4.856;2023-07-08T20:06:23;27.50;99.90
36548;DHT22;22551;52.206;4.856;2023-07-08T20:11:27;27.40;99.90
36548;DHT22;22551;52.206;4.856;2023-07-08T20:16:29;27.20;99.90
36548;DHT22;22551;52.206;4.856;2023-07-08T21:23:38;25.60;99.90
36548;DHT22;22551;52.206;4.856;2023-07-08T21:39:04;25.20;99.90
36548;DHT22;22551;52.206;4.856;2023-07-08T21:44:14;25.10;99.90
36548;DHT22;22551;52.206;4.856;2023-07-08T21:49:17;25.00;99.90
36548;DHT22;22551;52.206;4.856;2023-07-08T21:54:21;24.90;99.90
36548;DHT22;22551;52.206;4.856;2023-07-08T21:59:24;24.80;99.90
36548;DHT22;22551;52.206;4.856;2023-07-08T22:09:38;24.60;99.90
36548;DHT22;22551;52.206;4.856;2023-07-08T22:14:40;24.40;99.90
36548;DHT22;22551;52.206;4.856;2023-07-08T22:19:43;24.30;99.90
36548;DHT22;22551;52.206;4.856;2023-07-08T22:24:47;24.30;99.90
36548;DHT22;22551;52.206;4.856;2023-07-08T22:29:49;24.20;99.90
36548;DHT22;22551;52.206;4.856;2023-07-08T22:34:52;24.10;99.90
36548;DHT22;22551;52.206;4.856;2023-07-08T22:39:55;24.00;99.90
36548;DHT22;22551;52.206;4.856;2023-07-08T22:44:58;24.00;99.90
36548;DHT22;22551;52.206;4.856;2023-07-08T22:50:00;23.90;99.90
36548;DHT22;22551;52.206;4.856;2023-07-08T23:00:19;23.80;99.90
36548;DHT22;22551;52.206;4.856;2023-07-08T23:05:28;23.80;99.90
36548;DHT22;22551;52.206;4.856;2023-07-08T23:10:31;23.70;99.90
36548;DHT22;22551;52.206;4.856;2023-07-08T23:15:34;23.70;99.90
36548;DHT22;22551;52.206;4.856;2023-07-08T23:20:38;23.60;99.90
36548;DHT22;22551;52.206;4.856;2023-07-08T23:25:41;23.60;99.90
36548;DHT22;22551;52.206;4.856;2023-07-08T23:56:36;23.10;99.90
